ESST/TYF METAR and TAF weather

Enter ICAO airport designator
Station Type Date Time Source
ESST METAR 2019/06/26 22:50 UTC NOAA

ESST 262250Z AUTO 32006KT 9999 NCD 13/12 Q1017


Station Type Date Time Source
ESST Decoded METAR 2019/06/26 22:50 UTC NOAA

Station name not available
Jun 26, 2019 - 06:50 PM EDT / 2019.06.26 2250 UTC
Wind: from the NW (320 degrees) at 7 MPH (6 KT):0
Visibility: greater than 7 mile(s):0
Temperature: 55 F (13 C)
Dew Point: 53 F (12 C)
Relative Humidity: 93%
Pressure (altimeter): 30.03 in. Hg (1017 hPa)
ob: ESST 262250Z AUTO 32006KT 9999 NCD 13/12 Q1017
cycle: 23

Station Type Date Time Source
ESST TAF UTC NOAA

Error!

Example: see airport list